sensor_id;sensor_type;location;lat;lon;timestamp;pressure;altitude;pressure_sealevel;temperature;humidity
39209;BME280;24929;51.982;4.664;2023-05-25T00:00:50;77719.84;;;-143.36;50.64
39209;BME280;24929;51.982;4.664;2023-05-25T00:03:16;77729.88;;;-143.36;51.10
39209;BME280;24929;51.982;4.664;2023-05-25T00:05:41;77729.88;;;-143.36;50.60
39209;BME280;24929;51.982;4.664;2023-05-25T00:08:06;77721.88;;;-143.36;50.49
39209;BME280;24929;51.982;4.664;2023-05-25T00:10:31;77725.88;;;-143.36;50.32
39209;BME280;24929;51.982;4.664;2023-05-25T00:12:57;77733.91;;;-143.36;50.13
39209;BME280;24929;51.982;4.664;2023-05-25T00:15:22;77735.91;;;-143.36;50.20
39209;BME280;24929;51.982;4.664;2023-05-25T00:17:48;77749.97;;;-143.36;50.42
39209;BME280;24929;51.982;4.664;2023-05-25T00:20:13;77737.91;;;-143.36;50.42
39209;BME280;24929;51.982;4.664;2023-05-25T00:22:39;77737.91;;;-143.36;50.16
39209;BME280;24929;51.982;4.664;2023-05-25T00:25:09;77739.94;;;-143.36;50.24
39209;BME280;24929;51.982;4.664;2023-05-25T00:27:34;77733.91;;;-143.36;50.57
39209;BME280;24929;51.982;4.664;2023-05-25T00:30:00;77729.88;;;-143.36;50.95
39209;BME280;24929;51.982;4.664;2023-05-25T00:32:25;77723.88;;;-143.36;50.77
39209;BME280;24929;51.982;4.664;2023-05-25T00:34:50;77715.84;;;-143.36;51.06
39209;BME280;24929;51.982;4.664;2023-05-25T00:37:16;77717.84;;;-143.36;51.50
39209;BME280;24929;51.982;4.664;2023-05-25T00:39:41;77707.81;;;-143.36;51.48
39209;BME280;24929;51.982;4.664;2023-05-25T00:42:07;77705.81;;;-143.36;51.77
39209;BME280;24929;51.982;4.664;2023-05-25T00:44:33;77713.84;;;-143.36;53.07
39209;BME280;24929;51.982;4.664;2023-05-25T00:46:59;77737.91;;;-143.36;54.48
39209;BME280;24929;51.982;4.664;2023-05-25T00:49:27;77741.94;;;-143.36;54.72
39209;BME280;24929;51.982;4.664;2023-05-25T00:51:54;77749.97;;;-143.36;54.65
39209;BME280;24929;51.982;4.664;2023-05-25T00:54:20;77749.97;;;-143.36;54.91
39209;BME280;24929;51.982;4.664;2023-05-25T00:56:51;77697.78;;;-143.36;54.41
39209;BME280;24929;51.982;4.664;2023-05-25T00:59:25;77685.72;;;-143.36;54.45
39209;BME280;24929;51.982;4.664;2023-05-25T01:01:53;77721.88;;;-143.36;55.19
39209;BME280;24929;51.982;4.664;2023-05-25T01:04:19;77733.91;;;-143.36;55.05
39209;BME280;24929;51.982;4.664;2023-05-25T01:06:47;77709.81;;;-143.36;54.92
39209;BME280;24929;51.982;4.664;2023-05-25T01:09:16;77715.84;;;-143.36;55.03
39209;BME280;24929;51.982;4.664;2023-05-25T01:11:48;77713.84;;;-143.36;55.07
39209;BME280;24929;51.982;4.664;2023-05-25T01:14:17;77705.81;;;-143.36;55.22
39209;BME280;24929;51.982;4.664;2023-05-25T01:16:43;77749.97;;;-143.36;55.38
39209;BME280;24929;51.982;4.664;2023-05-25T01:19:09;77747.97;;;-143.36;55.40
39209;BME280;24929;51.982;4.664;2023-05-25T01:21:39;77723.88;;;-143.36;55.33
39209;BME280;24929;51.982;4.664;2023-05-25T01:24:10;77766.03;;;-143.36;55.50
39209;BME280;24929;51.982;4.664;2023-05-25T01:26:45;77709.81;;;-143.36;54.89
39209;BME280;24929;51.982;4.664;2023-05-25T01:29:12;77739.94;;;-143.36;55.46
39209;BME280;24929;51.982;4.664;2023-05-25T01:31:39;77739.94;;;-143.36;55.56
39209;BME280;24929;51.982;4.664;2023-05-25T01:34:05;77747.97;;;-143.36;55.89
39209;BME280;24929;51.982;4.664;2023-05-25T01:36:31;77770.03;;;-143.36;56.11
39209;BME280;24929;51.982;4.664;2023-05-25T01:38:57;77766.03;;;-143.36;56.04
39209;BME280;24929;51.982;4.664;2023-05-25T01:41:23;77800.16;;;-143.36;56.92
39209;BME280;24929;51.982;4.664;2023-05-25T01:43:49;77788.09;;;-143.36;56.84
39209;BME280;24929;51.982;4.664;2023-05-25T01:46:36;77729.88;;;-143.36;56.19
39209;BME280;24929;51.982;4.664;2023-05-25T01:51:46;77802.16;;;-143.36;57.29
39209;BME280;24929;51.982;4.664;2023-05-25T01:54:20;77758.00;;;-143.36;57.08
39209;BME280;24929;51.982;4.664;2023-05-25T01:56:50;77786.09;;;-143.36;57.62
39209;BME280;24929;51.982;4.664;2023-05-25T01:59:19;77768.03;;;-143.36;56.99
39209;BME280;24929;51.982;4.664;2023-05-25T02:01:47;77774.06;;;-143.36;57.00
39209;BME280;24929;51.982;4.664;2023-05-25T02:04:14;77784.09;;;-143.36;56.95
39209;BME280;24929;51.982;4.664;2023-05-25T02:06:40;77796.13;;;-143.36;56.78
39209;BME280;24929;51.982;4.664;2023-05-25T02:09:06;77790.13;;;-143.36;56.60
39209;BME280;24929;51.982;4.664;2023-05-25T02:11:31;77798.13;;;-143.36;56.61
39209;BME280;24929;51.982;4.664;2023-05-25T02:13:57;77788.09;;;-143.36;56.46
39209;BME280;24929;51.982;4.664;2023-05-25T02:16:22;77780.06;;;-143.36;56.70
39209;BME280;24929;51.982;4.664;2023-05-25T02:18:47;77778.06;;;-143.36;56.70
39209;BME280;24929;51.982;4.664;2023-05-25T02:21:13;77770.03;;;-143.36;56.39
39209;BME280;24929;51.982;4.664;2023-05-25T02:23:38;77770.03;;;-143.36;56.39
39209;BME280;24929;51.982;4.664;2023-05-25T02:26:03;77780.06;;;-143.36;56.39
39209;BME280;24929;51.982;4.664;2023-05-25T02:28:29;77772.03;;;-143.36;56.28
39209;BME280;24929;51.982;4.664;2023-05-25T02:30:54;77776.06;;;-143.36;56.37
39209;BME280;24929;51.982;4.664;2023-05-25T02:33:19;77768.03;;;-143.36;56.32
39209;BME280;24929;51.982;4.664;2023-05-25T02:35:45;77760.00;;;-143.36;55.90
39209;BME280;24929;51.982;4.664;2023-05-25T02:38:10;77756.00;;;-143.36;55.72
39209;BME280;24929;51.982;4.664;2023-05-25T02:40:36;77760.00;;;-143.36;55.69
39209;BME280;24929;51.982;4.664;2023-05-25T02:43:01;77764.00;;;-143.36;55.68
39209;BME280;24929;51.982;4.664;2023-05-25T02:45:27;77760.00;;;-143.36;55.59
39209;BME280;24929;51.982;4.664;2023-05-25T02:47:52;77772.03;;;-143.36;55.24
39209;BME280;24929;51.982;4.664;2023-05-25T02:50:17;77778.06;;;-143.36;55.58
39209;BME280;24929;51.982;4.664;2023-05-25T02:52:43;77786.09;;;-143.36;55.44
39209;BME280;24929;51.982;4.664;2023-05-25T02:55:08;77790.13;;;-143.36;54.80
39209;BME280;24929;51.982;4.664;2023-05-25T02:57:43;77818.22;;;-143.36;54.59
39209;BME280;24929;51.982;4.664;2023-05-25T03:00:11;77796.13;;;-143.36;53.99
39209;BME280;24929;51.982;4.664;2023-05-25T03:02:37;77858.38;;;-143.36;54.63
39209;BME280;24929;51.982;4.664;2023-05-25T03:05:03;77846.31;;;-143.36;54.41
39209;BME280;24929;51.982;4.664;2023-05-25T03:07:28;77854.34;;;-143.36;54.34
39209;BME280;24929;51.982;4.664;2023-05-25T03:09:54;77868.41;;;-143.36;54.41
39209;BME280;24929;51.982;4.664;2023-05-25T03:12:19;77874.41;;;-143.36;54.16
39209;BME280;24929;51.982;4.664;2023-05-25T03:14:45;77884.47;;;-143.36;54.28
39209;BME280;24929;51.982;4.664;2023-05-25T03:17:10;77872.41;;;-143.36;54.25
39209;BME280;24929;51.982;4.664;2023-05-25T03:19:35;77878.44;;;-143.36;53.97
39209;BME280;24929;51.982;4.664;2023-05-25T03:22:02;77864.38;;;-143.36;53.49
39209;BME280;24929;51.982;4.664;2023-05-25T03:24:28;77888.47;;;-143.36;54.24
39209;BME280;24929;51.982;4.664;2023-05-25T03:26:53;77890.47;;;-143.36;53.09
39209;BME280;24929;51.982;4.664;2023-05-25T03:29:18;77896.50;;;-143.36;54.20
39209;BME280;24929;51.982;4.664;2023-05-25T03:31:44;77898.50;;;-143.36;54.14
39209;BME280;24929;51.982;4.664;2023-05-25T03:34:10;77904.53;;;-143.36;54.59
39209;BME280;24929;51.982;4.664;2023-05-25T03:36:36;77906.53;;;-143.36;54.91
39209;BME280;24929;51.982;4.664;2023-05-25T03:39:03;77900.53;;;-143.36;54.47
39209;BME280;24929;51.982;4.664;2023-05-25T03:41:29;77906.53;;;-143.36;54.52
39209;BME280;24929;51.982;4.664;2023-05-25T03:43:54;77914.56;;;-143.36;54.76
39209;BME280;24929;51.982;4.664;2023-05-25T03:46:20;77910.56;;;-143.36;54.23
39209;BME280;24929;51.982;4.664;2023-05-25T03:48:45;77922.59;;;-143.36;54.13
39209;BME280;24929;51.982;4.664;2023-05-25T03:51:10;77940.66;;;-143.36;55.52
39209;BME280;24929;51.982;4.664;2023-05-25T03:53:36;77944.69;;;-143.36;55.69
39209;BME280;24929;51.982;4.664;2023-05-25T03:56:01;77954.72;;;-143.36;55.62
39209;BME280;24929;51.982;4.664;2023-05-25T03:58:27;77968.78;;;-143.36;55.38
39209;BME280;24929;51.982;4.664;2023-05-25T04:00:52;77966.75;;;-143.36;55.75
39209;BME280;24929;51.982;4.664;2023-05-25T04:03:19;77958.72;;;-143.36;55.55
39209;BME280;24929;51.982;4.664;2023-05-25T04:05:44;77958.72;;;-143.36;55.70
39209;BME280;24929;51.982;4.664;2023-05-25T04:08:12;77930.63;;;-143.36;55.77
39209;BME280;24929;51.982;4.664;2023-05-25T04:10:38;77958.72;;;-143.36;55.32
39209;BME280;24929;51.982;4.664;2023-05-25T04:13:04;77956.72;;;-143.36;55.13
39209;BME280;24929;51.982;4.664;2023-05-25T04:15:29;77948.69;;;-143.36;55.26
39209;BME280;24929;51.982;4.664;2023-05-25T04:17:54;77940.66;;;-143.36;54.78
39209;BME280;24929;51.982;4.664;2023-05-25T04:20:20;77942.69;;;-143.36;55.42
39209;BME280;24929;51.982;4.664;2023-05-25T04:22:45;77936.66;;;-143.36;54.67
39209;BME280;24929;51.982;4.664;2023-05-25T04:25:11;77926.63;;;-143.36;54.70
39209;BME280;24929;51.982;4.664;2023-05-25T04:27:37;77932.63;;;-143.36;54.75
39209;BME280;24929;51.982;4.664;2023-05-25T04:30:03;77896.50;;;-143.36;54.63
39209;BME280;24929;51.982;4.664;2023-05-25T04:32:28;77910.56;;;-143.36;54.25
39209;BME280;24929;51.982;4.664;2023-05-25T04:34:56;77904.53;;;-143.36;54.46
39209;BME280;24929;51.982;4.664;2023-05-25T04:44:04;77870.41;;;-143.36;55.00
39209;BME280;24929;51.982;4.664;2023-05-25T04:46:30;77854.34;;;-143.36;54.78
39209;BME280;24929;51.982;4.664;2023-05-25T04:49:02;77850.34;;;-143.36;54.58
39209;BME280;24929;51.982;4.664;2023-05-25T04:51:28;77850.34;;;-143.36;54.21
39209;BME280;24929;51.982;4.664;2023-05-25T04:53:53;77834.28;;;-143.36;54.19
39209;BME280;24929;51.982;4.664;2023-05-25T04:56:19;77830.25;;;-143.36;54.63
39209;BME280;24929;51.982;4.664;2023-05-25T04:58:46;77818.22;;;-143.36;55.17
39209;BME280;24929;51.982;4.664;2023-05-25T05:01:11;77808.19;;;-143.36;54.37
39209;BME280;24929;51.982;4.664;2023-05-25T05:03:37;77808.19;;;-143.36;54.35
39209;BME280;24929;51.982;4.664;2023-05-25T05:06:02;77802.16;;;-143.36;54.06
39209;BME280;24929;51.982;4.664;2023-05-25T05:08:28;77790.13;;;-143.36;54.24
39209;BME280;24929;51.982;4.664;2023-05-25T05:10:53;77784.09;;;-143.36;54.35
39209;BME280;24929;51.982;4.664;2023-05-25T05:13:18;77780.06;;;-143.36;54.03
39209;BME280;24929;51.982;4.664;2023-05-25T05:15:43;77766.03;;;-143.36;54.15
39209;BME280;24929;51.982;4.664;2023-05-25T05:18:09;77768.03;;;-143.36;53.99
39209;BME280;24929;51.982;4.664;2023-05-25T05:20:34;77768.03;;;-143.36;53.88
39209;BME280;24929;51.982;4.664;2023-05-25T05:23:00;77770.03;;;-143.36;53.66
39209;BME280;24929;51.982;4.664;2023-05-25T05:25:25;77764.00;;;-143.36;53.64
39209;BME280;24929;51.982;4.664;2023-05-25T05:27:50;77760.00;;;-143.36;53.52
39209;BME280;24929;51.982;4.664;2023-05-25T05:30:16;77739.94;;;-143.36;53.40
39209;BME280;24929;51.982;4.664;2023-05-25T05:32:41;77729.88;;;-143.36;53.59
39209;BME280;24929;51.982;4.664;2023-05-25T05:35:07;77739.94;;;-143.36;52.97
39209;BME280;24929;51.982;4.664;2023-05-25T05:37:32;77727.88;;;-143.36;52.80
39209;BME280;24929;51.982;4.664;2023-05-25T05:39:58;77729.88;;;-143.36;52.34
39209;BME280;24929;51.982;4.664;2023-05-25T05:42:23;77713.84;;;-143.36;52.91
39209;BME280;24929;51.982;4.664;2023-05-25T05:44:48;77731.91;;;-143.36;52.82
39209;BME280;24929;51.982;4.664;2023-05-25T05:47:14;77719.84;;;-143.36;51.83
39209;BME280;24929;51.982;4.664;2023-05-25T05:49:39;77711.81;;;-143.36;51.37
39209;BME280;24929;51.982;4.664;2023-05-25T05:52:05;77705.81;;;-143.36;50.46
39209;BME280;24929;51.982;4.664;2023-05-25T05:54:30;77693.75;;;-143.36;49.80
39209;BME280;24929;51.982;4.664;2023-05-25T05:56:56;77691.75;;;-143.36;49.27
39209;BME280;24929;51.982;4.664;2023-05-25T05:59:21;77673.69;;;-143.36;49.16
39209;BME280;24929;51.982;4.664;2023-05-25T06:01:47;77689.75;;;-143.36;48.72
39209;BME280;24929;51.982;4.664;2023-05-25T06:04:12;77685.72;;;-143.36;48.58
39209;BME280;24929;51.982;4.664;2023-05-25T06:06:40;77675.69;;;-143.36;47.88
39209;BME280;24929;51.982;4.664;2023-05-25T06:09:07;77651.59;;;-143.36;47.48
39209;BME280;24929;51.982;4.664;2023-05-25T06:11:36;77613.47;;;-143.36;47.43
39209;BME280;24929;51.982;4.664;2023-05-25T06:14:41;77585.38;;;-143.36;46.90
39209;BME280;24929;51.982;4.664;2023-05-25T06:17:07;77643.56;;;-143.36;46.95
39209;BME280;24929;51.982;4.664;2023-05-25T06:19:33;77669.69;;;-143.36;46.62
39209;BME280;24929;51.982;4.664;2023-05-25T06:21:59;77671.69;;;-143.36;46.82
39209;BME280;24929;51.982;4.664;2023-05-25T06:24:25;77669.69;;;-143.36;45.68
39209;BME280;24929;51.982;4.664;2023-05-25T06:26:51;77643.56;;;-143.36;47.04
39209;BME280;24929;51.982;4.664;2023-05-25T06:29:17;77631.53;;;-143.36;46.80
39209;BME280;24929;51.982;4.664;2023-05-25T06:31:43;77639.56;;;-143.36;46.55
39209;BME280;24929;51.982;4.664;2023-05-25T06:34:09;77675.69;;;-143.36;45.82
39209;BME280;24929;51.982;4.664;2023-05-25T06:36:35;77651.59;;;-143.36;46.23
39209;BME280;24929;51.982;4.664;2023-05-25T06:39:02;77649.59;;;-143.36;46.03
39209;BME280;24929;51.982;4.664;2023-05-25T06:41:28;77661.66;;;-143.36;46.21
39209;BME280;24929;51.982;4.664;2023-05-25T06:43:56;77613.47;;;-143.36;46.70
39209;BME280;24929;51.982;4.664;2023-05-25T06:46:22;77615.47;;;-143.36;46.22
39209;BME280;24929;51.982;4.664;2023-05-25T06:48:47;77603.44;;;-143.36;46.02
39209;BME280;24929;51.982;4.664;2023-05-25T06:51:13;77599.41;;;-143.36;46.71
39209;BME280;24929;51.982;4.664;2023-05-25T06:53:38;77613.47;;;-143.36;46.37
39209;BME280;24929;51.982;4.664;2023-05-25T06:56:04;77595.41;;;-143.36;46.70
39209;BME280;24929;51.982;4.664;2023-05-25T06:58:30;77559.28;;;-143.36;46.42
39209;BME280;24929;51.982;4.664;2023-05-25T07:00:56;77565.28;;;-143.36;46.29
39209;BME280;24929;51.982;4.664;2023-05-25T07:03:21;77599.41;;;-143.36;45.69
39209;BME280;24929;51.982;4.664;2023-05-25T07:05:46;77587.38;;;-143.36;46.24
39209;BME280;24929;51.982;4.664;2023-05-25T07:08:12;77559.28;;;-143.36;46.15
39209;BME280;24929;51.982;4.664;2023-05-25T07:10:37;77557.25;;;-143.36;45.33
39209;BME280;24929;51.982;4.664;2023-05-25T07:13:02;77553.25;;;-143.36;45.31
39209;BME280;24929;51.982;4.664;2023-05-25T07:15:28;77549.25;;;-143.36;45.28
39209;BME280;24929;51.982;4.664;2023-05-25T07:17:54;77523.16;;;-143.36;45.17
39209;BME280;24929;51.982;4.664;2023-05-25T07:20:24;77523.16;;;-143.36;45.01
39209;BME280;24929;51.982;4.664;2023-05-25T07:22:49;77533.19;;;-143.36;44.12
39209;BME280;24929;51.982;4.664;2023-05-25T07:25:15;77525.16;;;-143.36;44.31
39209;BME280;24929;51.982;4.664;2023-05-25T07:27:40;77503.06;;;-143.36;44.40
39209;BME280;24929;51.982;4.664;2023-05-25T07:30:08;77485.00;;;-143.36;43.91
39209;BME280;24929;51.982;4.664;2023-05-25T07:32:34;77501.06;;;-143.36;43.51
39209;BME280;24929;51.982;4.664;2023-05-25T07:34:59;77519.13;;;-143.36;43.17
39209;BME280;24929;51.982;4.664;2023-05-25T07:37:25;77543.22;;;-143.36;43.99
39209;BME280;24929;51.982;4.664;2023-05-25T07:39:50;77474.97;;;-143.36;44.03
39209;BME280;24929;51.982;4.664;2023-05-25T07:42:16;77493.03;;;-143.36;43.20
39209;BME280;24929;51.982;4.664;2023-05-25T07:44:46;77481.00;;;-143.36;43.61
39209;BME280;24929;51.982;4.664;2023-05-25T07:47:12;77454.91;;;-143.36;43.64
39209;BME280;24929;51.982;4.664;2023-05-25T07:49:37;77476.97;;;-143.36;43.73
39209;BME280;24929;51.982;4.664;2023-05-25T07:52:02;77454.91;;;-143.36;43.30
39209;BME280;24929;51.982;4.664;2023-05-25T07:54:30;77452.88;;;-143.36;43.95
39209;BME280;24929;51.982;4.664;2023-05-25T07:56:55;77513.09;;;-143.36;43.75
39209;BME280;24929;51.982;4.664;2023-05-25T07:59:20;77501.06;;;-143.36;43.53
39209;BME280;24929;51.982;4.664;2023-05-25T08:01:46;77531.16;;;-143.36;43.11
39209;BME280;24929;51.982;4.664;2023-05-25T08:04:11;77553.25;;;-143.36;43.14
39209;BME280;24929;51.982;4.664;2023-05-25T08:06:37;77523.16;;;-143.36;43.95
39209;BME280;24929;51.982;4.664;2023-05-25T08:09:03;77487.00;;;-143.36;43.73
39209;BME280;24929;51.982;4.664;2023-05-25T08:11:29;77468.94;;;-143.36;43.53
39209;BME280;24929;51.982;4.664;2023-05-25T08:13:55;77481.00;;;-143.36;43.44
39209;BME280;24929;51.982;4.664;2023-05-25T08:16:21;77368.59;;;-143.36;42.32
39209;BME280;24929;51.982;4.664;2023-05-25T08:18:46;77304.38;;;-143.36;41.47
39209;BME280;24929;51.982;4.664;2023-05-25T08:21:12;77378.63;;;-143.36;41.42
39209;BME280;24929;51.982;4.664;2023-05-25T08:23:39;77340.50;;;-143.36;41.36
39209;BME280;24929;51.982;4.664;2023-05-25T08:26:10;77362.56;;;-143.36;41.15
39209;BME280;24929;51.982;4.664;2023-05-25T08:28:36;77280.28;;;-143.36;41.11
39209;BME280;24929;51.982;4.664;2023-05-25T08:31:02;77250.16;;;-143.36;40.16
39209;BME280;24929;51.982;4.664;2023-05-25T08:33:29;77159.84;;;-143.36;39.21
39209;BME280;24929;51.982;4.664;2023-05-25T08:35:54;77081.59;;;-143.36;37.83
39209;BME280;24929;51.982;4.664;2023-05-25T08:38:20;77035.41;;;-143.36;37.31
39209;BME280;24929;51.982;4.664;2023-05-25T08:40:55;77059.50;;;-143.36;36.16
39209;BME280;24929;51.982;4.664;2023-05-25T08:43:23;77238.13;;;-143.36;37.63
39209;BME280;24929;51.982;4.664;2023-05-25T08:45:48;77254.19;;;-143.36;37.75
39209;BME280;24929;51.982;4.664;2023-05-25T08:48:16;77270.25;;;-143.36;38.09
39209;BME280;24929;51.982;4.664;2023-05-25T08:50:44;77362.56;;;-143.36;39.50
39209;BME280;24929;51.982;4.664;2023-05-25T08:53:13;77358.56;;;-143.36;40.01
39209;BME280;24929;51.982;4.664;2023-05-25T08:55:41;77378.63;;;-143.36;40.12
39209;BME280;24929;51.982;4.664;2023-05-25T08:58:19;77340.50;;;-143.36;39.42
39209;BME280;24929;51.982;4.664;2023-05-25T09:01:01;77344.50;;;-143.36;39.81
39209;BME280;24929;51.982;4.664;2023-05-25T09:03:28;77438.84;;;-143.36;40.11
39209;BME280;24929;51.982;4.664;2023-05-25T09:05:55;77370.59;;;-143.36;40.22
39209;BME280;24929;51.982;4.664;2023-05-25T09:08:21;77340.50;;;-143.36;40.11
39209;BME280;24929;51.982;4.664;2023-05-25T09:10:47;77346.50;;;-143.36;40.14
39209;BME280;24929;51.982;4.664;2023-05-25T09:13:14;77304.38;;;-143.36;39.72
39209;BME280;24929;51.982;4.664;2023-05-25T09:15:40;77308.38;;;-143.36;39.54
39209;BME280;24929;51.982;4.664;2023-05-25T09:18:05;77344.50;;;-143.36;39.39
39209;BME280;24929;51.982;4.664;2023-05-25T09:20:31;77342.50;;;-143.36;39.47
39209;BME280;24929;51.982;4.664;2023-05-25T09:22:57;77292.31;;;-143.36;39.33
39209;BME280;24929;51.982;4.664;2023-05-25T09:25:25;77294.31;;;-143.36;39.60
39209;BME280;24929;51.982;4.664;2023-05-25T09:27:52;77370.59;;;-143.36;40.10
39209;BME280;24929;51.982;4.664;2023-05-25T09:30:18;77422.78;;;-143.36;39.53
39209;BME280;24929;51.982;4.664;2023-05-25T09:32:44;77392.69;;;-143.36;39.21
39209;BME280;24929;51.982;4.664;2023-05-25T09:35:11;77266.22;;;-143.36;39.32
39209;BME280;24929;51.982;4.664;2023-05-25T09:37:37;77246.16;;;-143.36;38.92
39209;BME280;24929;51.982;4.664;2023-05-25T09:40:04;77147.81;;;-143.36;38.35
39209;BME280;24929;51.982;4.664;2023-05-25T09:42:33;77085.59;;;-143.36;38.07
39209;BME280;24929;51.982;4.664;2023-05-25T09:44:59;77175.91;;;-143.36;37.79
39209;BME280;24929;51.982;4.664;2023-05-25T09:47:28;77129.75;;;-143.36;36.66
39209;BME280;24929;51.982;4.664;2023-05-25T09:49:55;77187.94;;;-143.36;36.40
39209;BME280;24929;51.982;4.664;2023-05-25T09:52:20;77214.03;;;-143.36;36.83
39209;BME280;24929;51.982;4.664;2023-05-25T09:54:47;77270.25;;;-143.36;38.24
39209;BME280;24929;51.982;4.664;2023-05-25T09:57:14;77272.25;;;-143.36;37.75
39209;BME280;24929;51.982;4.664;2023-05-25T09:59:40;77346.50;;;-143.36;38.35
39209;BME280;24929;51.982;4.664;2023-05-25T10:02:06;77252.19;;;-143.36;37.95
39209;BME280;24929;51.982;4.664;2023-05-25T10:04:31;77208.03;;;-143.36;37.26
39209;BME280;24929;51.982;4.664;2023-05-25T10:07:08;77135.78;;;-143.36;36.50
39209;BME280;24929;51.982;4.664;2023-05-25T10:09:40;77041.44;;;-143.36;35.97
39209;BME280;24929;51.982;4.664;2023-05-25T10:12:08;77115.69;;;-143.36;36.03
39209;BME280;24929;51.982;4.664;2023-05-25T10:14:36;77029.41;;;-143.36;35.63
39209;BME280;24929;51.982;4.664;2023-05-25T10:17:04;77037.44;;;-143.36;34.39
39209;BME280;24929;51.982;4.664;2023-05-25T10:19:37;77075.56;;;-143.36;34.39
39209;BME280;24929;51.982;4.664;2023-05-25T10:22:19;76971.19;;;-143.36;33.69
39209;BME280;24929;51.982;4.664;2023-05-25T10:27:22;76925.03;;;-143.36;32.68
39209;BME280;24929;51.982;4.664;2023-05-25T10:29:50;76949.13;;;-143.36;33.27
39209;BME280;24929;51.982;4.664;2023-05-25T10:32:16;77047.47;;;-143.36;33.98
39209;BME280;24929;51.982;4.664;2023-05-25T10:34:42;77047.47;;;-143.36;34.42
39209;BME280;24929;51.982;4.664;2023-05-25T10:37:10;77047.47;;;-143.36;34.01
39209;BME280;24929;51.982;4.664;2023-05-25T10:39:37;77013.34;;;-143.36;34.49
39209;BME280;24929;51.982;4.664;2023-05-25T10:42:03;77035.41;;;-143.36;35.43
39209;BME280;24929;51.982;4.664;2023-05-25T10:44:30;77079.56;;;-143.36;35.70
39209;BME280;24929;51.982;4.664;2023-05-25T10:46:59;77081.59;;;-143.36;35.36
39209;BME280;24929;51.982;4.664;2023-05-25T10:49:33;77105.66;;;-143.36;35.28
39209;BME280;24929;51.982;4.664;2023-05-25T10:52:00;77107.66;;;-143.36;35.27
39209;BME280;24929;51.982;4.664;2023-05-25T10:54:29;77095.63;;;-143.36;35.61
39209;BME280;24929;51.982;4.664;2023-05-25T10:57:25;77055.50;;;-143.36;35.22
39209;BME280;24929;51.982;4.664;2023-05-25T10:59:52;77123.72;;;-143.36;36.44
39209;BME280;24929;51.982;4.664;2023-05-25T11:02:26;77119.72;;;-143.36;35.67
39209;BME280;24929;51.982;4.664;2023-05-25T11:18:48;77133.75;;;-143.36;36.53
39209;BME280;24929;51.982;4.664;2023-05-25T11:26:28;77097.63;;;-143.36;37.51
39209;BME280;24929;51.982;4.664;2023-05-25T11:28:56;77157.84;;;-143.36;37.25
39209;BME280;24929;51.982;4.664;2023-05-25T11:31:29;77177.91;;;-143.36;37.93
39209;BME280;24929;51.982;4.664;2023-05-25T11:33:57;77214.03;;;-143.36;36.78
39209;BME280;24929;51.982;4.664;2023-05-25T11:36:24;77204.00;;;-143.36;37.27
39209;BME280;24929;51.982;4.664;2023-05-25T11:38:51;77252.19;;;-143.36;36.53
39209;BME280;24929;51.982;4.664;2023-05-25T11:41:19;77202.00;;;-143.36;36.37
39209;BME280;24929;51.982;4.664;2023-05-25T11:43:49;77175.91;;;-143.36;35.54
39209;BME280;24929;51.982;4.664;2023-05-25T11:46:16;77177.91;;;-143.36;35.76
39209;BME280;24929;51.982;4.664;2023-05-25T11:51:20;77153.84;;;-143.36;35.58
39209;BME280;24929;51.982;4.664;2023-05-25T11:53:46;77155.84;;;-143.36;35.03
39209;BME280;24929;51.982;4.664;2023-05-25T11:56:13;77169.88;;;-143.36;35.97
39209;BME280;24929;51.982;4.664;2023-05-25T11:58:40;77151.81;;;-143.36;35.54
39209;BME280;24929;51.982;4.664;2023-05-25T12:01:16;77093.63;;;-143.36;35.38
39209;BME280;24929;51.982;4.664;2023-05-25T12:07:06;77127.75;;;-143.36;36.47
39209;BME280;24929;51.982;4.664;2023-05-25T12:09:33;77113.69;;;-143.36;36.10
39209;BME280;24929;51.982;4.664;2023-05-25T12:12:02;77073.56;;;-143.36;35.90
39209;BME280;24929;51.982;4.664;2023-05-25T12:14:28;77045.44;;;-143.36;35.74
39209;BME280;24929;51.982;4.664;2023-05-25T12:16:54;77103.66;;;-143.36;35.64
39209;BME280;24929;51.982;4.664;2023-05-25T12:19:20;77091.63;;;-143.36;35.69
39209;BME280;24929;51.982;4.664;2023-05-25T12:21:47;77087.59;;;-143.36;36.00
39209;BME280;24929;51.982;4.664;2023-05-25T12:24:17;77081.59;;;-143.36;35.38
39209;BME280;24929;51.982;4.664;2023-05-25T12:26:48;77025.38;;;-143.36;35.41
39209;BME280;24929;51.982;4.664;2023-05-25T12:29:13;77059.50;;;-143.36;35.58
39209;BME280;24929;51.982;4.664;2023-05-25T12:31:39;77023.38;;;-143.36;34.75
39209;BME280;24929;51.982;4.664;2023-05-25T12:34:10;77021.38;;;-143.36;34.49
39209;BME280;24929;51.982;4.664;2023-05-25T12:39:01;77023.38;;;-143.36;34.96
39209;BME280;24929;51.982;4.664;2023-05-25T12:41:29;77039.44;;;-143.36;34.42
39209;BME280;24929;51.982;4.664;2023-05-25T12:43:57;77051.47;;;-143.36;34.79
39209;BME280;24929;51.982;4.664;2023-05-25T12:46:24;77119.72;;;-143.36;35.41
39209;BME280;24929;51.982;4.664;2023-05-25T12:48:50;77075.56;;;-143.36;35.49
39209;BME280;24929;51.982;4.664;2023-05-25T12:51:51;76991.25;;;-143.36;34.94
39209;BME280;24929;51.982;4.664;2023-05-25T12:55:21;77007.31;;;-143.36;35.63
39209;BME280;24929;51.982;4.664;2023-05-25T12:58:06;77011.34;;;-143.36;34.99
39209;BME280;24929;51.982;4.664;2023-05-25T13:00:38;76957.16;;;-143.36;34.75
39209;BME280;24929;51.982;4.664;2023-05-25T13:06:36;77051.47;;;-143.36;35.40
39209;BME280;24929;51.982;4.664;2023-05-25T13:12:19;77089.59;;;-143.36;35.49
39209;BME280;24929;51.982;4.664;2023-05-25T13:14:47;77031.41;;;-143.36;35.88
39209;BME280;24929;51.982;4.664;2023-05-25T13:17:14;77071.53;;;-143.36;35.48
39209;BME280;24929;51.982;4.664;2023-05-25T13:19:42;77039.44;;;-143.36;34.46
39209;BME280;24929;51.982;4.664;2023-05-25T13:22:09;76993.28;;;-143.36;34.94
39209;BME280;24929;51.982;4.664;2023-05-25T13:27:58;77047.47;;;-143.36;34.76
39209;BME280;24929;51.982;4.664;2023-05-25T13:30:26;77011.34;;;-143.36;34.80